createdAt,value
2023-01-12T00:00:51.445Z,98132.97
2023-01-12T00:03:17.656Z,98138.13
2023-01-12T00:05:43.872Z,98136.81
2023-01-12T00:08:10.080Z,98129.25
2023-01-12T00:10:36.298Z,98150.97
2023-01-12T00:13:02.491Z,98157.19
2023-01-12T00:15:28.699Z,98172.44
2023-01-12T00:17:54.895Z,98183.56
2023-01-12T00:20:21.103Z,98190.25
2023-01-12T00:22:47.657Z,98200.88
2023-01-12T00:25:13.863Z,98203.50
2023-01-12T00:27:40.067Z,98199.31
2023-01-12T00:30:06.593Z,98205.00
2023-01-12T00:32:32.785Z,98204.47
2023-01-12T00:34:59.011Z,98205.53
2023-01-12T00:37:25.218Z,98199.84
2023-01-12T00:40:01.866Z,98201.41
2023-01-12T00:42:28.925Z,98200.09
2023-01-12T00:44:55.125Z,98206.28
2023-01-12T00:47:21.331Z,98208.38
2023-01-12T00:49:47.573Z,98205.97
2023-01-12T00:52:24.940Z,98210.63
2023-01-12T00:54:55.701Z,98216.34
2023-01-12T00:57:21.897Z,98212.97
2023-01-12T00:59:48.105Z,98218.63
2023-01-12T01:02:14.409Z,98227.88
2023-01-12T01:04:40.713Z,98240.88
2023-01-12T01:07:06.919Z,98248.09
2023-01-12T01:09:33.159Z,98250.19
2023-01-12T01:11:59.355Z,98238.00
2023-01-12T01:14:25.563Z,98226.06
2023-01-12T01:16:51.779Z,98228.66
2023-01-12T01:19:17.973Z,98227.66
2023-01-12T01:21:44.186Z,98221.41
2023-01-12T01:24:10.979Z,98211.06
2023-01-12T01:26:37.191Z,98212.34
2023-01-12T01:29:03.391Z,98204.84
2023-01-12T01:31:29.679Z,98206.91
2023-01-12T01:33:55.901Z,98213.34
2023-01-12T01:36:22.124Z,98201.91
2023-01-12T01:38:48.557Z,98202.69
2023-01-12T01:41:17.509Z,98179.38
2023-01-12T01:44:03.935Z,98195.22
2023-01-12T01:46:33.310Z,98192.91
2023-01-12T01:49:01.788Z,98200.44
2023-01-12T01:51:28.002Z,98193.81
2023-01-12T01:53:54.210Z,98208.03
2023-01-12T01:56:22.230Z,98235.50
2023-01-12T01:58:56.042Z,98247.97
2023-01-12T02:01:22.334Z,98258.09
2023-01-12T02:03:48.646Z,98259.09
2023-01-12T02:06:14.865Z,98268.41
2023-01-12T02:08:43.347Z,98284.44
2023-01-12T02:11:09.564Z,98307.53
2023-01-12T02:13:35.782Z,98302.06
2023-01-12T02:16:02.790Z,98308.00
2023-01-12T02:18:34.067Z,98328.19
2023-01-12T02:21:10.102Z,98354.06
2023-01-12T02:23:59.341Z,98360.84
2023-01-12T02:26:38.579Z,98370.38
2023-01-12T02:29:13.174Z,98370.69
2023-01-12T02:31:43.256Z,98397.84
2023-01-12T02:34:28.428Z,98401.47
2023-01-12T02:36:56.956Z,98418.09
2023-01-12T02:39:27.846Z,98425.13
2023-01-12T02:41:57.006Z,98415.28
2023-01-12T02:44:26.868Z,98424.13
2023-01-12T02:46:53.197Z,98422.03
2023-01-12T02:49:20.593Z,98399.19
2023-01-12T02:51:49.131Z,98406.72
2023-01-12T02:54:16.088Z,98397.84
2023-01-12T02:56:42.263Z,98399.41
2023-01-12T02:59:09.439Z,98397.06
2023-01-12T03:01:35.674Z,98424.00
2023-01-12T03:04:02.831Z,98419.03
2023-01-12T03:06:42.016Z,98424.47
2023-01-12T03:09:08.220Z,98438.47
2023-01-12T03:11:34.693Z,98460.75
2023-01-12T03:14:00.950Z,98455.59
2023-01-12T03:16:28.352Z,98457.66
2023-01-12T03:19:01.713Z,98478.63
2023-01-12T03:21:41.303Z,98474.25
2023-01-12T03:24:08.555Z,98475.28
2023-01-12T03:26:35.531Z,98482.03
2023-01-12T03:29:09.782Z,98482.22
2023-01-12T03:31:36.359Z,98499.41
2023-01-12T03:34:02.583Z,98481.75
2023-01-12T03:36:31.824Z,98495.25
2023-01-12T03:39:02.431Z,98497.06
2023-01-12T03:41:37.507Z,98484.88
2023-01-12T03:44:04.734Z,98482.31
2023-01-12T03:46:36.187Z,98478.13
2023-01-12T03:49:11.290Z,98472.94
2023-01-12T03:51:39.178Z,98475.53
2023-01-12T03:54:05.461Z,98475.53
2023-01-12T03:56:31.860Z,98464.94
2023-01-12T03:58:58.064Z,98460.53
2023-01-12T04:01:24.340Z,98444.44
2023-01-12T04:03:50.557Z,98443.41
2023-01-12T04:06:16.760Z,98435.38
2023-01-12T04:08:42.980Z,98420.56
2023-01-12T04:11:09.182Z,98425.25
2023-01-12T04:13:35.400Z,98435.28
2023-01-12T04:16:01.623Z,98432.19
2023-01-12T04:18:27.855Z,98437.38
2023-01-12T04:20:54.072Z,98460.69
2023-01-12T04:23:20.290Z,98468.72
2023-01-12T04:25:46.481Z,98470.31
2023-01-12T04:28:12.697Z,98476.00
2023-01-12T04:30:38.899Z,98473.13
2023-01-12T04:33:08.218Z,98480.91
2023-01-12T04:35:34.490Z,98488.44
2023-01-12T04:38:04.701Z,98485.38
2023-01-12T04:40:30.902Z,98480.72
2023-01-12T04:42:57.126Z,98481.75
2023-01-12T04:45:23.328Z,98478.19
2023-01-12T04:47:49.530Z,98470.97
2023-01-12T04:50:15.741Z,98467.03
2023-01-12T04:52:41.941Z,98462.19
2023-01-12T04:55:08.344Z,98450.53
2023-01-12T04:57:34.892Z,98444.06
2023-01-12T05:00:01.097Z,98431.88
2023-01-12T05:02:27.504Z,98414.75
2023-01-12T05:04:53.714Z,98392.25
2023-01-12T05:07:19.910Z,98385.47
2023-01-12T05:09:46.123Z,98392.25
2023-01-12T05:12:12.315Z,98393.56
2023-01-12T05:14:38.544Z,98389.91
2023-01-12T05:17:04.835Z,98369.44
2023-01-12T05:19:31.037Z,98367.53
2023-01-12T05:21:57.244Z,98363.91
2023-01-12T05:24:23.445Z,98355.88
2023-01-12T05:26:49.647Z,98351.72
2023-01-12T05:29:15.867Z,98341.56
2023-01-12T05:31:42.080Z,98338.47
2023-01-12T05:34:08.285Z,98323.91
2023-01-12T05:36:34.516Z,98323.38
2023-01-12T05:39:00.726Z,98332.91
2023-01-12T05:41:26.945Z,98342.53
2023-01-12T05:43:53.273Z,98346.34
2023-01-12T05:46:39.740Z,98343.50
2023-01-12T05:49:05.945Z,98338.31
2023-01-12T05:51:32.166Z,98333.13
2023-01-12T05:53:58.416Z,98337.53
2023-01-12T05:56:25.243Z,98316.50
2023-01-12T05:58:51.428Z,98315.13
2023-01-12T06:01:17.806Z,98319.09
2023-01-12T06:03:44.190Z,98318.88
2023-01-12T06:06:10.419Z,98309.50
2023-01-12T06:08:36.619Z,98310.63
2023-01-12T06:11:03.197Z,98294.84
2023-01-12T06:13:29.398Z,98284.13
2023-01-12T06:15:59.893Z,98285.44
2023-01-12T06:18:26.112Z,98263.31
2023-01-12T06:20:52.394Z,98258.47
2023-01-12T06:23:18.613Z,98246.28
2023-01-12T06:25:44.830Z,98226.31
2023-01-12T06:28:11.035Z,98217.22
2023-01-12T06:30:37.251Z,98215.13
2023-01-12T06:33:03.463Z,98207.63
2023-01-12T06:35:29.693Z,98196.88
2023-01-12T06:37:56.665Z,98191.28
2023-01-12T06:40:22.876Z,98177.28
2023-01-12T06:42:49.086Z,98169.22
2023-01-12T06:45:15.314Z,98174.09
2023-01-12T06:47:43.767Z,98174.09
2023-01-12T06:50:10.444Z,98170.97
2023-01-12T06:52:36.639Z,98176.91
2023-01-12T06:55:02.923Z,98176.41
2023-01-12T06:57:29.137Z,98187.28
2023-01-12T06:59:55.347Z,98183.69
2023-01-12T07:02:21.556Z,98187.28
2023-01-12T07:04:47.833Z,98182.84
2023-01-12T07:07:14.085Z,98183.13
2023-01-12T07:09:40.294Z,98181.56
2023-01-12T07:12:06.536Z,98166.53
2023-01-12T07:14:32.791Z,98156.34
2023-01-12T07:16:58.998Z,98151.09
2023-01-12T07:19:25.202Z,98144.84
2023-01-12T07:21:51.457Z,98135.03
2023-01-12T07:24:17.668Z,98114.78
2023-01-12T07:26:43.897Z,98093.25
2023-01-12T07:29:10.088Z,98075.59
2023-01-12T07:31:36.297Z,98052.78
2023-01-12T07:34:02.508Z,98034.03
2023-01-12T07:36:28.735Z,98009.44
2023-01-12T07:38:55.178Z,97994.06
2023-01-12T07:41:21.447Z,97973.03
2023-01-12T07:43:47.678Z,97950.19
2023-01-12T07:46:13.953Z,97936.94
2023-01-12T07:48:40.175Z,97914.44
2023-01-12T07:51:06.387Z,97896.97
2023-01-12T07:53:32.600Z,97880.63
2023-01-12T07:55:58.873Z,97866.31
2023-01-12T07:58:25.111Z,97842.41
2023-01-12T08:00:51.513Z,97835.97
2023-01-12T08:03:17.780Z,97819.91
2023-01-12T08:05:44.113Z,97797.72
2023-01-12T08:08:10.405Z,97792.06
2023-01-12T08:10:36.639Z,97765.63
2023-01-12T08:13:02.852Z,97751.50
2023-01-12T08:15:30.337Z,97735.66
2023-01-12T08:18:01.327Z,97724.41
2023-01-12T08:20:32.144Z,97719.50
2023-01-12T08:22:58.819Z,97707.78
2023-01-12T08:25:25.404Z,97696.16
2023-01-12T08:27:51.771Z,97681.84
2023-01-12T08:30:18.484Z,97673.75
2023-01-12T08:32:44.698Z,97669.03
2023-01-12T08:35:11.153Z,97657.13
2023-01-12T08:37:37.372Z,97644.34
2023-01-12T08:40:04.153Z,97648.94
2023-01-12T08:42:31.910Z,97648.34
2023-01-12T08:44:58.270Z,97650.00
2023-01-12T08:47:25.144Z,97639.16
2023-01-12T08:49:51.531Z,97627.25
2023-01-12T08:52:18.138Z,97603.19
2023-01-12T08:54:44.508Z,97611.84
2023-01-12T08:57:10.811Z,97585.44
2023-01-12T08:59:37.029Z,97581.00
2023-01-12T09:02:03.363Z,97565.28
2023-01-12T09:04:29.627Z,97555.41
2023-01-12T09:06:55.859Z,97561.84
2023-01-12T09:09:22.067Z,97560.78
2023-01-12T09:11:48.434Z,97557.25
2023-01-12T09:14:14.799Z,97562.94
2023-01-12T09:16:41.068Z,97578.22
2023-01-12T09:19:07.472Z,97569.09
2023-01-12T09:21:35.488Z,97575.09
2023-01-12T09:24:01.704Z,97586.25
2023-01-12T09:26:28.475Z,97592.78
2023-01-12T09:28:54.705Z,97596.63
2023-01-12T09:31:21.680Z,97610.19
2023-01-12T09:33:47.942Z,97604.72
2023-01-12T09:36:14.946Z,97617.69
2023-01-12T09:38:41.580Z,97616.22
2023-01-12T09:41:26.536Z,97623.72
2023-01-12T09:43:52.747Z,97639.75
2023-01-12T09:46:22.760Z,97658.88
2023-01-12T09:48:48.995Z,97677.25
2023-01-12T09:51:24.859Z,97692.34
2023-01-12T09:53:51.067Z,97701.66
2023-01-12T09:56:37.544Z,97716.31
2023-01-12T09:59:12.651Z,97701.66
2023-01-12T10:01:38.886Z,97706.38
2023-01-12T10:04:05.147Z,97714.78
2023-01-12T10:06:31.414Z,97727.47
2023-01-12T10:08:57.858Z,97731.13
2023-01-12T10:11:40.057Z,97765.34
2023-01-12T10:14:06.230Z,97777.72
2023-01-12T10:16:47.790Z,97803.06
2023-01-12T10:19:25.014Z,97806.41
2023-01-12T10:21:51.754Z,97808.44
2023-01-12T10:24:18.005Z,97800.16
2023-01-12T10:26:44.205Z,97795.75
2023-01-12T10:29:10.465Z,97786.59
2023-01-12T10:31:36.698Z,97777.72
2023-01-12T10:34:03.683Z,97777.94
2023-01-12T10:36:29.892Z,97775.75
2023-01-12T10:38:56.811Z,97763.34
2023-01-12T10:41:26.783Z,97733.13
2023-01-12T10:43:55.971Z,97726.59
2023-01-12T10:46:22.517Z,97698.31
2023-01-12T10:48:49.305Z,97676.00
2023-01-12T10:51:22.846Z,97650.03
2023-01-12T10:53:59.737Z,97632.28
2023-01-12T10:56:33.150Z,97627.31
2023-01-12T10:59:00.627Z,97597.09
2023-01-12T11:01:41.517Z,97595.56
2023-01-12T11:04:10.141Z,97553.22
2023-01-12T11:06:36.415Z,97543.44
2023-01-12T11:09:16.651Z,97519.16
2023-01-12T11:11:42.875Z,97500.53
2023-01-12T11:14:19.471Z,97487.28
2023-01-12T11:16:48.714Z,97476.59
2023-01-12T11:19:29.416Z,97477.03
2023-01-12T11:22:02.782Z,97452.13
2023-01-12T11:24:40.988Z,97446.94
2023-01-12T11:27:10.827Z,97431.84
2023-01-12T11:29:55.378Z,97406.13
2023-01-12T11:32:27.041Z,97387.81
2023-01-12T11:35:08.476Z,97374.38
2023-01-12T11:37:34.776Z,97383.25
2023-01-12T11:40:03.321Z,97374.69
2023-01-12T11:42:29.794Z,97382.63
2023-01-12T11:45:15.522Z,97370.69
2023-01-12T11:47:47.495Z,97360.31
2023-01-12T11:50:14.834Z,97352.78
2023-01-12T11:52:41.045Z,97346.97
2023-01-12T11:55:09.163Z,97358.59
2023-01-12T11:57:54.079Z,97339.47
2023-01-12T12:00:40.407Z,97343.59
2023-01-12T12:03:15.080Z,97355.84
2023-01-12T12:05:47.434Z,97334.88
2023-01-12T12:08:16.656Z,97331.06
2023-01-12T12:10:47.871Z,97345.28
2023-01-12T12:13:23.031Z,97341.91
2023-01-12T12:16:08.011Z,97336.56
2023-01-12T12:18:54.553Z,97330.44
2023-01-12T12:21:30.065Z,97311.00
2023-01-12T12:24:01.913Z,97318.97
2023-01-12T12:26:28.096Z,97310.66
2023-01-12T12:28:57.156Z,97321.66
2023-01-12T12:31:32.860Z,97318.28
2023-01-12T12:34:15.752Z,97317.03
2023-01-12T12:36:44.970Z,97351.56
2023-01-12T12:39:24.823Z,97369.94
2023-01-12T12:42:03.979Z,97373.94
2023-01-12T12:44:34.641Z,97400.72
2023-01-12T12:47:04.484Z,97412.03
2023-01-12T12:49:30.819Z,97399.31
2023-01-12T12:51:57.033Z,97426.00
2023-01-12T12:54:23.450Z,97400.84
2023-01-12T12:56:49.678Z,97394.13
2023-01-12T12:59:31.132Z,97376.97
2023-01-12T13:01:58.091Z,97368.09
2023-01-12T13:04:42.559Z,97359.66
2023-01-12T13:07:11.905Z,97328.44
2023-01-12T13:09:38.134Z,97327.38
2023-01-12T13:12:04.311Z,97315.13
2023-01-12T13:14:31.423Z,97292.47
2023-01-12T13:17:16.408Z,97267.41
2023-01-12T13:19:43.219Z,97260.03
2023-01-12T13:22:29.148Z,97256.22
2023-01-12T13:24:55.782Z,97225.91
2023-01-12T13:27:40.753Z,97202.66
2023-01-12T13:30:25.538Z,97208.63
2023-01-12T13:32:54.454Z,97194.94
2023-01-12T13:35:32.684Z,97175.22
2023-01-12T13:38:11.839Z,97163.53
2023-01-12T13:40:38.064Z,97158.97
2023-01-12T13:43:04.757Z,97148.25
2023-01-12T13:45:31.019Z,97133.72
2023-01-12T13:47:57.232Z,97131.56
2023-01-12T13:50:24.313Z,97124.06
2023-01-12T13:52:57.107Z,97112.88
2023-01-12T13:55:24.188Z,97094.66
2023-01-12T13:58:02.536Z,97081.34
2023-01-12T14:00:29.227Z,97074.63
2023-01-12T14:02:55.540Z,97068.44
2023-01-12T14:05:24.316Z,97063.13
2023-01-12T14:07:52.512Z,97040.56
2023-01-12T14:10:27.591Z,97022.50
2023-01-12T14:13:16.331Z,97022.81
2023-01-12T14:15:42.682Z,97013.63
2023-01-12T14:18:10.768Z,97018.91
2023-01-12T14:20:40.779Z,97029.00
2023-01-12T14:23:20.456Z,97035.63
2023-01-12T14:25:47.030Z,97022.84
2023-01-12T14:28:17.031Z,97034.44
2023-01-12T14:30:50.702Z,97025.91
2023-01-12T14:33:17.370Z,97022.41
2023-01-12T14:35:44.156Z,97018.41
2023-01-12T14:38:11.089Z,97009.94
2023-01-12T14:40:37.317Z,97004.84
2023-01-12T14:43:03.518Z,97011.56
2023-01-12T14:45:29.782Z,97013.41
2023-01-12T14:47:56.030Z,97011.47
2023-01-12T14:50:22.336Z,97021.44
2023-01-12T14:52:48.551Z,97007.78
2023-01-12T14:55:18.523Z,97000.72
2023-01-12T14:57:48.999Z,96996.84
2023-01-12T15:00:21.941Z,96996.69
2023-01-12T15:02:51.516Z,96994.84
2023-01-12T15:05:19.008Z,97000.47
2023-01-12T15:07:55.548Z,97012.13
2023-01-12T15:10:32.217Z,97019.78
2023-01-12T15:13:17.328Z,97033.38
2023-01-12T15:15:43.739Z,97075.56
2023-01-12T15:18:09.972Z,97125.34
2023-01-12T15:20:37.771Z,97153.56
2023-01-12T15:23:08.093Z,97169.16
2023-01-12T15:25:34.322Z,97190.00
2023-01-12T15:28:00.715Z,97204.75
2023-01-12T15:30:26.937Z,97199.53
2023-01-12T15:32:53.150Z,97209.97
2023-01-12T15:35:21.868Z,97204.75
2023-01-12T15:37:48.124Z,97209.81
2023-01-12T15:40:14.367Z,97206.75
2023-01-12T15:49:32.353Z,97197.31
2023-01-12T15:52:27.977Z,97186.16
2023-01-12T15:57:37.458Z,97183.41
2023-01-12T16:00:18.262Z,97209.72
2023-01-12T16:02:49.482Z,97227.34
2023-01-12T16:05:18.059Z,97280.16
2023-01-12T16:07:48.760Z,97320.50
2023-01-12T16:10:15.397Z,97366.19
2023-01-12T16:12:41.716Z,97395.75
2023-01-12T16:15:13.933Z,97409.84
2023-01-12T16:17:40.297Z,97408.00
2023-01-12T16:20:06.937Z,97406.16
2023-01-12T16:22:33.903Z,97404.00
2023-01-12T16:25:00.136Z,97391.91
2023-01-12T16:27:26.415Z,97385.06
2023-01-12T16:29:53.267Z,97372.03
2023-01-12T16:35:29.001Z,97365.00
2023-01-12T16:38:09.019Z,97365.63
2023-01-12T16:40:35.295Z,97362.72
2023-01-12T16:43:07.056Z,97383.97
2023-01-12T16:45:33.331Z,97400.66
2023-01-12T16:47:59.597Z,97414.13
2023-01-12T16:50:40.656Z,97427.16
2023-01-12T16:53:11.206Z,97421.03
2023-01-12T16:55:58.208Z,97410.94
2023-01-12T16:58:24.482Z,97392.59
2023-01-12T17:01:12.311Z,97395.19
2023-01-12T17:03:49.934Z,97379.41
2023-01-12T17:06:27.047Z,97366.41
2023-01-12T17:08:56.097Z,97357.25
2023-01-12T17:11:24.833Z,97340.00
2023-01-12T17:14:04.426Z,97345.03
2023-01-12T17:16:35.826Z,97341.22
2023-01-12T17:22:31.427Z,97302.84
2023-01-12T17:28:02.492Z,97251.88
2023-01-12T17:33:38.459Z,97194.22
2023-01-12T17:33:59.693Z,97213.63
2023-01-12T17:36:05.371Z,97150.44
2023-01-12T17:44:51.435Z,97058.34
2023-01-12T17:47:17.664Z,97040.91
2023-01-12T17:49:43.889Z,97005.56
2023-01-12T17:52:10.111Z,96974.03
2023-01-12T17:54:36.314Z,96944.34
2023-01-12T17:57:02.529Z,96911.16
2023-01-12T17:59:28.769Z,96885.59
2023-01-12T18:01:55.238Z,96831.50
2023-01-12T18:04:21.541Z,96804.75
2023-01-12T18:06:47.763Z,96774.00
2023-01-12T18:09:13.995Z,96756.34
2023-01-12T18:11:40.256Z,96728.91
2023-01-12T18:14:07.771Z,96694.34
2023-01-12T18:16:34.060Z,96675.38
2023-01-12T18:19:01.556Z,96626.84
2023-01-12T18:21:27.786Z,96586.84
2023-01-12T18:23:54.089Z,96556.13
2023-01-12T18:26:21.435Z,96535.41
2023-01-12T18:28:47.664Z,96528.38
2023-01-12T18:31:14.771Z,96484.00
2023-01-12T18:33:41.263Z,96457.41
2023-01-12T18:36:08.360Z,96424.75
2023-01-12T18:38:34.562Z,96403.25
2023-01-12T18:41:03.512Z,96374.81
2023-01-12T18:43:29.717Z,96365.38
2023-01-12T18:45:55.911Z,96345.72
2023-01-12T18:48:22.125Z,96317.22
2023-01-12T18:50:51.850Z,96273.72
2023-01-12T18:53:18.146Z,96259.22
2023-01-12T18:55:44.363Z,96222.19
2023-01-12T18:58:10.622Z,96213.72
2023-01-12T19:00:36.856Z,96187.69
2023-01-12T19:03:03.096Z,96174.09
2023-01-12T19:05:29.381Z,96183.66
2023-01-12T19:07:55.608Z,96165.13
2023-01-12T19:10:21.809Z,96153.22
2023-01-12T19:12:48.017Z,96133.97
2023-01-12T19:15:14.237Z,96128.88
2023-01-12T19:17:41.974Z,96151.44
2023-01-12T19:20:09.243Z,96153.22
2023-01-12T19:22:35.432Z,96144.69
2023-01-12T19:25:01.742Z,96109.38
2023-01-12T19:27:27.955Z,96109.38
2023-01-12T19:29:54.173Z,96083.53
2023-01-12T19:32:20.383Z,96082.00
2023-01-12T19:34:46.595Z,96081.25
2023-01-12T19:37:12.797Z,96070.50
2023-01-12T19:39:40.591Z,96056.75
2023-01-12T19:42:08.353Z,96038.50
2023-01-12T19:44:34.588Z,96032.56
2023-01-12T19:47:00.787Z,96029.63
2023-01-12T19:49:27.010Z,96027.03
2023-01-12T19:51:53.209Z,96029.59
2023-01-12T19:54:19.444Z,96019.19
2023-01-12T19:56:46.251Z,96004.34
2023-01-12T19:59:12.467Z,96009.19
2023-01-12T20:01:38.799Z,95990.56
2023-01-12T20:04:05.071Z,95985.69
2023-01-12T20:06:31.321Z,95971.22
2023-01-12T20:08:57.568Z,95968.50
2023-01-12T20:11:23.774Z,95936.31
2023-01-12T20:13:49.978Z,95941.50
2023-01-12T20:16:16.247Z,95951.16
2023-01-12T20:18:42.474Z,95948.09
2023-01-12T20:21:09.297Z,95928.91
2023-01-12T20:23:35.517Z,95942.19
2023-01-12T20:26:01.780Z,95933.22
2023-01-12T20:28:27.992Z,95920.63
2023-01-12T20:30:54.207Z,95900.88
2023-01-12T20:33:20.414Z,95888.59
2023-01-12T20:35:46.699Z,95866.28
2023-01-12T20:38:12.917Z,95859.28
2023-01-12T20:40:39.133Z,95858.94
2023-01-12T20:43:05.335Z,95859.31
2023-01-12T20:45:31.553Z,95873.91
2023-01-12T20:47:57.756Z,95888.69
2023-01-12T20:50:23.977Z,95896.84
2023-01-12T20:52:50.201Z,95889.78
2023-01-12T20:55:16.396Z,95880.13
2023-01-12T20:57:42.637Z,95896.50
2023-01-12T21:00:09.125Z,95897.22
2023-01-12T21:02:35.336Z,95907.25
2023-01-12T21:05:01.595Z,95908.41
2023-01-12T21:07:27.798Z,95896.47
2023-01-12T21:09:54.005Z,95900.53
2023-01-12T21:12:20.224Z,95896.13
2023-01-12T21:14:46.422Z,95896.44
2023-01-12T21:17:12.637Z,95878.94
2023-01-12T21:19:38.836Z,95866.69
2023-01-12T21:22:05.059Z,95867.34
2023-01-12T21:24:31.266Z,95843.25
2023-01-12T21:26:57.483Z,95845.09
2023-01-12T21:29:23.693Z,95846.94
2023-01-12T21:31:49.942Z,95818.31
2023-01-12T21:34:16.183Z,95810.53
2023-01-12T21:36:42.412Z,95811.59
2023-01-12T21:39:08.613Z,95797.50
2023-01-12T21:41:34.842Z,95805.72
2023-01-12T21:44:02.868Z,95819.09
2023-01-12T21:46:29.244Z,95810.84
2023-01-12T21:48:55.452Z,95798.97
2023-01-12T21:51:21.669Z,95810.22
2023-01-12T21:53:47.862Z,95826.53
2023-01-12T21:56:14.079Z,95850.69
2023-01-12T21:58:40.311Z,95846.16
2023-01-12T22:01:10.110Z,95837.66
2023-01-12T22:03:36.420Z,95860.72
2023-01-12T22:06:06.440Z,95865.19
2023-01-12T22:08:33.299Z,95877.09
2023-01-12T22:11:03.846Z,95879.25
2023-01-12T22:13:30.053Z,95875.97
2023-01-12T22:15:56.259Z,95882.63
2023-01-12T22:18:22.478Z,95881.53
2023-01-12T22:20:48.683Z,95892.69
2023-01-12T22:23:14.899Z,95886.31
2023-01-12T22:25:41.089Z,95890.44
2023-01-12T22:28:07.290Z,95887.47
2023-01-12T22:30:33.497Z,95901.19
2023-01-12T22:32:59.707Z,95894.88
2023-01-12T22:35:25.903Z,95898.94
2023-01-12T22:37:52.121Z,95893.72
2023-01-12T22:40:18.333Z,95909.75
2023-01-12T22:42:44.541Z,95937.56
2023-01-12T22:45:10.820Z,95941.66
2023-01-12T22:47:47.530Z,95953.19
2023-01-12T22:50:14.507Z,95950.91
2023-01-12T22:52:40.723Z,95946.47
2023-01-12T22:55:07.026Z,95951.34
2023-01-12T22:57:33.234Z,95959.13
2023-01-12T22:59:59.444Z,95988.78
2023-01-12T23:02:25.830Z,95986.59
2023-01-12T23:04:52.218Z,95986.94
2023-01-12T23:07:18.548Z,95991.72
2023-01-12T23:09:45.400Z,95990.69
2023-01-12T23:12:11.763Z,96010.38
2023-01-12T23:14:38.082Z,96034.19
2023-01-12T23:17:04.427Z,96066.94
2023-01-12T23:19:30.734Z,96079.94
2023-01-12T23:21:57.063Z,96118.28
2023-01-12T23:24:23.372Z,96156.19
2023-01-12T23:26:49.704Z,96188.19
2023-01-12T23:29:16.034Z,96220.63
2023-01-12T23:31:42.361Z,96264.81
2023-01-12T23:34:08.776Z,96285.97
2023-01-12T23:36:35.095Z,96294.16
2023-01-12T23:39:02.162Z,96323.47
2023-01-12T23:41:29.154Z,96326.06
2023-01-12T23:43:56.413Z,96330.19
2023-01-12T23:46:22.844Z,96349.38
2023-01-12T23:48:52.551Z,96356.53
2023-01-12T23:51:18.884Z,96365.19
2023-01-12T23:53:50.700Z,96406.75
2023-01-12T23:56:17.018Z,96441.81
2023-01-12T23:58:43.422Z,96489.78
